createdAt,value
2023-05-10T00:02:22.253Z,100806.84
2023-05-10T00:07:46.021Z,100802.38
2023-05-10T00:13:07.886Z,100807.13
2023-05-10T00:18:29.847Z,100796.25
2023-05-10T00:23:51.697Z,100800.97
2023-05-10T00:29:13.434Z,100800.41
2023-05-10T00:34:35.177Z,100805.13
2023-05-10T00:39:57.008Z,100797.88
2023-05-10T00:45:18.932Z,100807.31
2023-05-10T00:50:41.322Z,100803.97
2023-05-10T00:56:04.807Z,100795.63
2023-05-10T01:01:26.655Z,100802.28
2023-05-10T01:06:48.495Z,100797.00
2023-05-10T01:12:10.547Z,100794.47
2023-05-10T01:17:32.705Z,100798.34
2023-05-10T01:23:32.086Z,100798.09
2023-05-10T01:29:09.077Z,100802.25
2023-05-10T01:34:39.155Z,100799.47
2023-05-10T01:40:19.951Z,100804.16
2023-05-10T01:45:50.868Z,100801.66
2023-05-10T01:51:14.080Z,100798.28
2023-05-10T01:56:41.442Z,100808.31
2023-05-10T02:02:06.003Z,100811.59
2023-05-10T02:07:29.779Z,100821.03
2023-05-10T02:12:54.741Z,100825.75
2023-05-10T02:18:18.147Z,100817.66
2023-05-10T02:23:40.929Z,100834.34
2023-05-10T02:29:07.969Z,100841.00
2023-05-10T02:34:31.144Z,100846.53
2023-05-10T02:39:56.405Z,100850.41
2023-05-10T02:45:21.916Z,100854.31
2023-05-10T02:50:45.782Z,100857.59
2023-05-10T02:56:15.801Z,100861.81
2023-05-10T03:01:37.685Z,100859.53
2023-05-10T03:07:00.169Z,100853.16
2023-05-10T03:12:55.147Z,100852.06
2023-05-10T03:18:37.679Z,100851.47
2023-05-10T03:24:10.265Z,100857.03
2023-05-10T03:29:33.210Z,100864.78
2023-05-10T03:34:55.062Z,100858.38
2023-05-10T03:40:17.404Z,100865.03
2023-05-10T03:45:39.403Z,100866.97
2023-05-10T03:51:01.351Z,100871.69
2023-05-10T03:56:23.266Z,100872.78
2023-05-10T04:01:45.089Z,100881.13
2023-05-10T04:07:06.867Z,100875.81
2023-05-10T04:12:28.642Z,100886.06
2023-05-10T04:17:51.611Z,100883.56
2023-05-10T04:23:15.259Z,100891.03
2023-05-10T04:28:37.143Z,100881.88
2023-05-10T04:33:58.931Z,100899.66
2023-05-10T04:39:20.746Z,100895.19
2023-05-10T04:44:42.636Z,100901.56
2023-05-10T04:50:07.711Z,100897.97
2023-05-10T04:55:29.538Z,100884.31
2023-05-10T05:00:51.340Z,100887.94
2023-05-10T05:06:13.098Z,100884.56
2023-05-10T05:11:34.913Z,100899.66
2023-05-10T05:16:57.099Z,100903.91
2023-05-10T05:22:20.586Z,100908.44
2023-05-10T05:27:43.182Z,100919.84
2023-05-10T05:33:05.399Z,100920.22
2023-05-10T05:38:27.388Z,100919.69
2023-05-10T05:43:49.210Z,100932.28
2023-05-10T05:49:11.236Z,100926.47
2023-05-10T05:54:34.038Z,100928.41
2023-05-10T05:59:56.016Z,100935.31
2023-05-10T06:05:18.232Z,100943.94
2023-05-10T06:10:40.250Z,100952.50
2023-05-10T06:16:03.672Z,100952.19
2023-05-10T06:21:25.715Z,100958.25
2023-05-10T06:26:47.586Z,100961.28
2023-05-10T06:32:09.400Z,100958.75
2023-05-10T06:37:31.180Z,100975.94
2023-05-10T06:42:53.012Z,100971.72
2023-05-10T06:48:14.897Z,100981.16
2023-05-10T06:53:36.918Z,100988.66
2023-05-10T06:58:59.032Z,101004.72
2023-05-10T07:04:20.922Z,101010.53
2023-05-10T07:09:43.319Z,101013.56
2023-05-10T07:15:06.152Z,101018.28
2023-05-10T07:20:27.997Z,101020.97
2023-05-10T07:25:51.061Z,101023.75
2023-05-10T07:31:12.832Z,101017.09
2023-05-10T07:36:34.697Z,101015.19
2023-05-10T07:41:57.013Z,101027.44
2023-05-10T07:47:18.830Z,101029.22
2023-05-10T07:52:40.876Z,101042.94
2023-05-10T07:58:02.776Z,101047.72
2023-05-10T08:03:24.644Z,101053.38
2023-05-10T08:08:51.699Z,101065.06
2023-05-10T08:14:13.640Z,101055.38
2023-05-10T08:19:35.528Z,101065.97
2023-05-10T08:24:57.319Z,101055.72
2023-05-10T08:30:19.328Z,101061.25
2023-05-10T08:35:41.224Z,101058.00
2023-05-10T08:41:04.357Z,101070.25
2023-05-10T08:46:28.781Z,101064.47
2023-05-10T08:51:56.426Z,101070.94
2023-05-10T08:57:18.821Z,101080.41
2023-05-10T09:02:41.500Z,101078.00
2023-05-10T09:08:03.390Z,101078.56
2023-05-10T09:13:26.217Z,101084.97
2023-05-10T09:18:48.197Z,101084.13
2023-05-10T09:24:10.432Z,101101.66
2023-05-10T09:29:43.300Z,101108.38
2023-05-10T09:35:12.460Z,101105.34
2023-05-10T09:40:35.048Z,101103.97
2023-05-10T09:45:57.048Z,101109.03
2023-05-10T09:51:22.968Z,101108.22
2023-05-10T09:56:44.936Z,101111.56
2023-05-10T10:02:07.753Z,101122.47
2023-05-10T10:07:30.366Z,101116.63
2023-05-10T10:12:52.892Z,101121.38
2023-05-10T10:18:16.750Z,101124.63
2023-05-10T10:23:38.764Z,101137.84
2023-05-10T10:29:12.569Z,101140.56
2023-05-10T10:34:34.917Z,101145.47
2023-05-10T10:39:56.846Z,101139.56
2023-05-10T10:45:19.055Z,101151.19
2023-05-10T10:50:47.928Z,101157.59
2023-05-10T10:56:12.739Z,101152.53
2023-05-10T11:01:38.541Z,101149.75
2023-05-10T11:07:18.742Z,101142.50
2023-05-10T11:13:02.076Z,101144.19
2023-05-10T11:18:28.771Z,101146.16
2023-05-10T11:23:53.273Z,101143.38
2023-05-10T11:29:15.138Z,101149.75
2023-05-10T11:34:36.998Z,101143.09
2023-05-10T11:39:58.898Z,101148.16
2023-05-10T11:45:20.835Z,101157.09
2023-05-10T11:50:42.691Z,101145.72
2023-05-10T11:56:08.672Z,101151.03
2023-05-10T12:01:30.778Z,101144.34
2023-05-10T12:06:52.617Z,101141.91
2023-05-10T12:12:18.573Z,101148.13
2023-05-10T12:17:43.458Z,101136.84
2023-05-10T12:23:06.743Z,101146.72
2023-05-10T12:28:31.964Z,101146.53
2023-05-10T12:33:53.739Z,101147.69
2023-05-10T12:39:15.663Z,101154.44
2023-05-10T12:44:37.540Z,101153.06
2023-05-10T12:50:02.351Z,101151.97
2023-05-10T12:55:24.184Z,101147.84
2023-05-10T13:00:46.208Z,101165.09
2023-05-10T13:06:08.045Z,101162.91
2023-05-10T13:11:29.920Z,101160.72
2023-05-10T13:16:51.781Z,101162.41
2023-05-10T13:22:13.592Z,101167.69
2023-05-10T13:27:35.482Z,101174.69
2023-05-10T13:32:57.351Z,101176.38
2023-05-10T13:38:21.727Z,101173.34
2023-05-10T13:43:44.314Z,101173.06
2023-05-10T13:49:06.284Z,101168.09
2023-05-10T13:54:30.685Z,101174.25
2023-05-10T13:59:54.772Z,101174.50
2023-05-10T14:05:19.994Z,101170.03
2023-05-10T14:10:46.114Z,101163.03
2023-05-10T14:16:08.041Z,101167.47
2023-05-10T14:21:33.034Z,101166.03
2023-05-10T14:26:55.276Z,101165.69
2023-05-10T14:32:17.134Z,101167.88
2023-05-10T14:37:38.974Z,101152.56
2023-05-10T14:43:00.919Z,101168.66
2023-05-10T14:48:22.778Z,101161.69
2023-05-10T14:53:44.539Z,101158.31
2023-05-10T14:59:06.376Z,101159.66
2023-05-10T15:04:29.025Z,101167.16
2023-05-10T15:09:53.117Z,101164.31
2023-05-10T15:15:15.233Z,101168.69
2023-05-10T15:20:37.235Z,101178.41
2023-05-10T15:25:58.968Z,101175.63
2023-05-10T15:31:20.889Z,101183.09
2023-05-10T15:36:43.097Z,101180.31
2023-05-10T15:42:05.356Z,101189.78
2023-05-10T15:47:28.945Z,101187.25
2023-05-10T15:52:50.750Z,101194.75
2023-05-10T15:58:12.558Z,101197.53
2023-05-10T16:03:37.278Z,101205.25
2023-05-10T16:08:59.436Z,101206.34
2023-05-10T16:14:24.951Z,101220.25
2023-05-10T16:19:47.671Z,101218.22
2023-05-10T16:25:11.523Z,101212.66
2023-05-10T16:30:34.570Z,101226.81
2023-05-10T16:35:56.597Z,101236.25
2023-05-10T16:41:18.378Z,101240.97
2023-05-10T16:46:40.980Z,101239.88
2023-05-10T16:52:03.540Z,101249.03
2023-05-10T16:57:25.939Z,101248.47
2023-05-10T17:02:47.917Z,101253.19
2023-05-10T17:08:10.472Z,101247.03
2023-05-10T17:13:32.410Z,101250.06
2023-05-10T17:18:54.284Z,101250.81
2023-05-10T17:24:16.200Z,101254.97
2023-05-10T17:29:37.990Z,101252.41
2023-05-10T17:34:59.795Z,101257.38
2023-05-10T17:40:21.945Z,101253.16
2023-05-10T17:45:45.068Z,101254.25
2023-05-10T17:51:06.973Z,101256.44
2023-05-10T17:56:29.153Z,101267.56
2023-05-10T18:01:50.983Z,101267.00
2023-05-10T18:07:12.904Z,101270.88
2023-05-10T18:12:34.658Z,101271.09
2023-05-10T18:17:57.036Z,101273.97
2023-05-10T18:23:18.940Z,101269.94
2023-05-10T18:28:40.771Z,101273.41
2023-05-10T18:34:02.653Z,101281.84
2023-05-10T18:39:25.207Z,101289.16
2023-05-10T18:44:47.025Z,101292.66
2023-05-10T18:50:09.109Z,101284.66
2023-05-10T18:55:31.026Z,101291.91
2023-05-10T19:00:53.788Z,101288.84
2023-05-10T19:06:15.621Z,101297.53
2023-05-10T19:11:37.495Z,101303.19
2023-05-10T19:16:59.340Z,101305.22
2023-05-10T19:22:35.300Z,101315.31
2023-05-10T19:28:03.807Z,101311.78
2023-05-10T19:33:25.768Z,101314.03
2023-05-10T19:38:47.692Z,101321.28
2023-05-10T19:44:09.538Z,101321.56
2023-05-10T19:49:31.659Z,101331.66
2023-05-10T19:54:53.542Z,101337.31
2023-05-10T20:00:15.626Z,101344.63
2023-05-10T20:05:37.432Z,101343.91
2023-05-10T20:11:00.911Z,101347.59
2023-05-10T20:16:25.076Z,101355.69
2023-05-10T20:21:48.330Z,101356.50
2023-05-10T20:27:10.152Z,101361.50
2023-05-10T20:32:32.559Z,101361.50
2023-05-10T20:37:54.962Z,101363.09
2023-05-10T20:43:17.315Z,101363.28
2023-05-10T20:48:39.181Z,101358.47
2023-05-10T20:54:04.660Z,101347.53
2023-05-10T20:59:26.319Z,101355.44
2023-05-10T21:04:48.111Z,101355.09
2023-05-10T21:10:11.906Z,101358.06
2023-05-10T21:15:33.756Z,101351.56
2023-05-10T21:20:55.535Z,101346.16
2023-05-10T21:26:17.507Z,101349.44
2023-05-10T21:31:39.304Z,101356.63
2023-05-10T21:37:01.709Z,101357.13
2023-05-10T21:42:23.672Z,101363.13
2023-05-10T21:47:45.925Z,101359.16
2023-05-10T21:53:07.755Z,101359.69
2023-05-10T21:58:29.496Z,101359.09
2023-05-10T22:03:51.262Z,101355.69
2023-05-10T22:09:13.077Z,101355.97
2023-05-10T22:14:35.050Z,101354.50
2023-05-10T22:19:57.000Z,101355.59
2023-05-10T22:25:18.848Z,101346.44
2023-05-10T22:30:42.504Z,101348.38
2023-05-10T22:36:05.428Z,101356.72
2023-05-10T22:41:27.219Z,101349.94
2023-05-10T22:46:49.103Z,101347.66
2023-05-10T22:52:11.147Z,101350.69
2023-05-10T22:57:33.709Z,101355.41
2023-05-10T23:02:55.605Z,101353.72
2023-05-10T23:08:17.438Z,101354.81
2023-05-10T23:13:39.181Z,101360.34
2023-05-10T23:19:01.040Z,101370.03
2023-05-10T23:24:23.154Z,101366.94
2023-05-10T23:29:44.948Z,101375.75
2023-05-10T23:35:07.309Z,101373.72
2023-05-10T23:40:29.137Z,101373.97
2023-05-10T23:45:58.141Z,101379.53
2023-05-10T23:51:20.126Z,101380.00
2023-05-10T23:56:41.933Z,101371.06
